Time,TemperatureF,DewpointF,PressureIn,WindDirection,WindDirectionDegrees,WindSpeedMPH,WindSpeedGustMPH,Humidity,HourlyPrecipIn,Conditions,Clouds,dailyrainin,SolarRadiationWatts/m^2,SoftwareType,DateUTC
2013-10-05 00:02:00,68.0,32.0,30.02,North,351,12.0,21.0,26,-99.99,,,-99.99,0.000000,,2013-10-05 06:02:00,
2013-10-05 01:52:00,61.0,16.0,30.06,North,10,19.0,32.0,17,-99.99,,,-99.99,0.000000,,2013-10-05 07:52:00,
2013-10-05 02:02:00,61.0,16.0,30.06,North,10,19.0,32.0,17,-99.99,,,-99.99,0.000000,,2013-10-05 08:02:00,
2013-10-05 02:42:00,60.0,15.0,30.09,NNE,13,16.0,23.0,17,-99.99,,,-99.99,0.000000,,2013-10-05 08:42:00,
2013-10-05 02:52:00,60.0,15.0,30.09,NNE,13,19.0,27.0,16,-99.99,,,-99.99,0.000000,,2013-10-05 08:52:00,
2013-10-05 03:11:00,59.0,15.0,30.09,North,11,19.0,27.0,17,-99.99,,,-99.99,0.000000,,2013-10-05 09:11:00,
2013-10-05 03:43:00,58.0,14.0,30.10,North,11,19.0,30.0,17,-99.99,,,-99.99,0.000000,,2013-10-05 09:43:00,
2013-10-05 04:43:00,56.0,14.0,30.12,NNE,13,19.0,28.0,18,-99.99,,,-99.99,0.000000,,2013-10-05 10:43:00,
2013-10-05 05:43:00,55.0,15.0,30.15,North,11,18.0,28.0,20,-99.99,,,-99.99,0.000000,,2013-10-05 11:43:00,
2013-10-05 06:12:00,54.0,16.0,30.15,North,1,17.0,24.0,21,-99.99,,,-99.99,0.000000,,2013-10-05 12:12:00,
2013-10-05 06:42:00,54.0,16.0,30.16,North,355,17.0,26.0,21,-99.99,,,-99.99,0.000000,,2013-10-05 12:42:00,
2013-10-05 08:22:00,54.0,17.0,30.19,North,6,17.0,23.0,23,-99.99,,,-99.99,76.709999,,2013-10-05 14:22:00,
2013-10-05 08:42:00,55.0,18.0,30.20,North,7,18.0,25.0,22,-99.99,,,-99.99,183.399994,,2013-10-05 14:42:00,
2013-10-05 10:23:00,60.0,17.0,30.23,NNE,16,20.0,26.0,18,-99.99,,,-99.99,520.909973,,2013-10-05 16:23:00,
2013-10-05 10:43:00,61.0,18.0,30.23,NNE,15,20.0,27.0,18,-99.99,,,-99.99,588.549988,,2013-10-05 16:43:00,
2013-10-05 11:42:00,62.0,18.0,30.24,NNE,16,16.0,21.0,17,-99.99,,,-99.99,674.320007,,2013-10-05 17:42:00,
2013-10-05 12:22:00,64.0,19.0,30.23,NNE,17,13.0,20.0,17,-99.99,,,-99.99,737.780029,,2013-10-05 18:22:00,
2013-10-05 12:42:00,65.0,19.0,30.22,North,358,9.0,17.0,17,-99.99,,,-99.99,752.419983,,2013-10-05 18:42:00,
2013-10-05 13:22:00,66.0,20.0,30.20,North,0,8.0,14.0,16,-99.99,,,-99.99,758.000000,,2013-10-05 19:22:00,
2013-10-05 13:42:00,67.0,20.0,30.19,NNE,12,8.0,13.0,16,-99.99,,,-99.99,755.210022,,2013-10-05 19:42:00,
2013-10-05 13:52:00,67.0,20.0,30.19,NNE,26,7.0,17.0,16,-99.99,,,-99.99,748.940002,,2013-10-05 19:52:00,
2013-10-05 14:02:00,67.0,20.0,30.19,NNE,26,7.0,17.0,16,-99.99,,,-99.99,748.940002,,2013-10-05 20:02:00,
2013-10-05 14:42:00,69.0,21.0,30.16,North,8,8.0,15.0,15,-99.99,,,-99.99,704.309998,,2013-10-05 20:42:00,
2013-10-05 14:52:00,69.0,21.0,30.16,NNE,13,8.0,15.0,15,-99.99,,,-99.99,678.510010,,2013-10-05 20:52:00,
2013-10-05 15:01:00,69.0,21.0,30.16,NNE,13,8.0,15.0,15,-99.99,,,-99.99,678.510010,,2013-10-05 21:01:00,
2013-10-05 15:44:00,70.0,20.0,30.15,NNE,12,6.0,12.0,14,-99.99,,,-99.99,601.799988,,2013-10-05 21:44:00,
2013-10-05 16:13:00,70.0,19.0,30.15,North,0,11.0,21.0,14,-99.99,,,-99.99,530.669983,,2013-10-05 22:13:00,
2013-10-05 16:42:00,70.0,17.0,30.14,NNE,31,12.0,19.0,13,-99.99,,,-99.99,455.359985,,2013-10-05 22:42:00,
2013-10-05 17:43:00,70.0,16.0,30.14,NNE,17,11.0,17.0,12,-99.99,,,-99.99,266.380005,,2013-10-05 23:43:00,
2013-10-05 17:53:00,69.0,14.0,30.15,NNE,22,13.0,20.0,11,-99.99,,,-99.99,221.750000,,2013-10-05 23:53:00,
2013-10-05 18:02:00,69.0,14.0,30.15,NNE,22,13.0,20.0,11,-99.99,,,-99.99,221.750000,,2013-10-06 00:02:00,
2013-10-05 18:43:00,67.0,10.0,30.16,NNE,27,11.0,16.0,10,-99.99,,,-99.99,79.500000,,2013-10-06 00:43:00,
2013-10-05 19:42:00,61.0,14.0,30.17,NNE,21,6.0,8.0,15,-99.99,,,-99.99,0.000000,,2013-10-06 01:42:00,
2013-10-05 20:12:00,58.0,15.0,30.18,NNW,337,6.0,8.0,18,-99.99,,,-99.99,0.000000,,2013-10-06 02:12:00,
2013-10-05 20:42:00,58.0,16.0,30.19,NNW,330,6.0,7.0,19,-99.99,,,-99.99,0.000000,,2013-10-06 02:42:00,
2013-10-05 21:54:00,52.0,19.0,30.21,NW,313,4.0,8.0,26,-99.99,,,-99.99,0.000000,,2013-10-06 03:54:00,
2013-10-05 22:44:00,51.0,19.0,30.22,NNW,346,7.0,10.0,28,-99.99,,,-99.99,0.000000,,2013-10-06 04:44:00,
2013-10-05 22:54:00,51.0,19.0,30.22,NNW,331,7.0,11.0,28,-99.99,,,-99.99,0.000000,,2013-10-06 04:54:00,
2013-10-05 23:13:00,51.0,20.0,30.22,NW,319,8.0,10.0,28,-99.99,,,-99.99,0.000000,,2013-10-06 05:13:00,
2013-10-05 23:43:00,53.0,19.0,30.22,NW,316,7.0,10.0,26,-99.99,,,-99.99,0.000000,,2013-10-06 05:43:00,